createdAt,value
2019-05-02T00:03:46.034Z,24.15
2019-05-02T00:08:53.685Z,24.27
2019-05-02T00:14:01.284Z,28.05
2019-05-02T00:19:13.537Z,25.04
2019-05-02T00:24:16.123Z,24.91
2019-05-02T00:29:24.922Z,27.54
2019-05-02T00:34:30.887Z,23.45
2019-05-02T00:39:38.577Z,24.08
2019-05-02T00:44:46.860Z,23.80
2019-05-02T00:49:53.368Z,23.37
2019-05-02T00:55:00.974Z,24.93
2019-05-02T01:00:08.640Z,24.99
2019-05-02T01:05:16.256Z,25.68
2019-05-02T01:10:23.871Z,24.96
2019-05-02T01:15:31.462Z,29.69
2019-05-02T01:20:39.310Z,25.92
2019-05-02T01:25:47.245Z,30.29
2019-05-02T01:30:54.109Z,24.94
2019-05-02T01:36:05.776Z,25.83
2019-05-02T01:41:08.913Z,25.59
2019-05-02T01:46:17.198Z,24.89
2019-05-02T01:51:23.725Z,30.06
2019-05-02T01:56:33.067Z,26.40
2019-05-02T02:01:38.541Z,30.43
2019-05-02T02:06:46.142Z,25.83
2019-05-02T02:11:53.799Z,25.53
2019-05-02T02:17:01.398Z,26.24
2019-05-02T02:22:09.092Z,32.01
2019-05-02T02:27:19.996Z,25.88
2019-05-02T02:32:26.689Z,25.83
2019-05-02T02:37:31.030Z,25.46
2019-05-02T02:42:38.665Z,25.85
2019-05-02T02:47:46.285Z,25.83
2019-05-02T02:52:54.072Z,25.74
2019-05-02T02:58:04.800Z,26.77
2019-05-02T03:03:08.928Z,27.60
2019-05-02T03:08:16.546Z,26.92
2019-05-02T03:13:24.336Z,29.72
2019-05-02T03:18:39.502Z,37.15
2019-05-02T03:23:39.014Z,31.10
2019-05-02T03:28:57.228Z,36.95
2019-05-02T03:33:59.727Z,30.84
2019-05-02T03:39:13.279Z,31.59
2019-05-02T03:44:11.549Z,31.65
2019-05-02T03:49:15.277Z,32.38
2019-05-02T03:54:22.905Z,31.99
2019-05-02T03:59:38.486Z,32.15
2019-05-02T04:04:37.701Z,37.11
2019-05-02T04:09:45.334Z,32.17
2019-05-02T04:14:55.621Z,31.03
2019-05-02T04:20:00.182Z,30.47
2019-05-02T04:25:07.873Z,32.28
2019-05-02T04:30:15.474Z,42.11
2019-05-02T04:35:28.695Z,35.44
2019-05-02T04:40:34.910Z,38.39
2019-05-02T04:45:51.925Z,37.33
2019-05-02T04:50:44.628Z,35.56
2019-05-02T05:01:01.789Z,35.48
2019-05-02T05:06:10.235Z,34.17
2019-05-02T05:11:13.847Z,33.81
2019-05-02T05:16:20.854Z,39.90
2019-05-02T05:21:28.659Z,32.49
2019-05-02T05:26:41.008Z,32.26
2019-05-02T05:31:43.201Z,36.73
2019-05-02T05:36:50.873Z,30.67
2019-05-02T05:41:58.457Z,29.69
2019-05-02T05:47:07.364Z,33.99
2019-05-02T05:52:13.268Z,35.45
2019-05-02T05:57:21.301Z,34.92
2019-05-02T06:02:28.675Z,31.26
2019-05-02T06:07:43.525Z,34.78
2019-05-02T06:12:43.469Z,28.91
2019-05-02T06:17:51.124Z,28.54
2019-05-02T06:23:00.018Z,27.94
2019-05-02T06:28:06.777Z,27.32
2019-05-02T06:33:13.057Z,27.36
2019-05-02T06:38:21.986Z,27.23
2019-05-02T06:43:27.836Z,25.93
2019-05-02T06:48:35.529Z,31.49
2019-05-02T06:53:46.947Z,31.15
2019-05-02T06:58:50.317Z,24.69
2019-05-02T07:03:57.903Z,25.65
2019-05-02T07:09:05.637Z,23.97
2019-05-02T07:14:14.003Z,26.63
2019-05-02T07:19:21.639Z,30.13
2019-05-02T07:24:30.876Z,27.30
2019-05-02T07:29:34.730Z,27.73
2019-05-02T07:34:44.192Z,25.75
2019-05-02T07:39:49.500Z,26.97
2019-05-02T07:44:57.131Z,27.74
2019-05-02T07:50:05.310Z,25.71
2019-05-02T07:55:11.917Z,28.27
2019-05-02T08:00:19.579Z,29.93
2019-05-02T08:05:27.183Z,26.72
2019-05-02T08:10:34.827Z,27.40
2019-05-02T08:15:45.741Z,28.17
2019-05-02T08:20:51.060Z,33.28
2019-05-02T08:25:56.821Z,30.86
2019-05-02T08:31:04.465Z,30.54
2019-05-02T08:36:12.057Z,30.54
2019-05-02T08:41:20.275Z,30.83
2019-05-02T08:46:26.805Z,31.53
2019-05-02T08:51:34.449Z,38.48
2019-05-02T08:56:42.052Z,36.57
2019-05-02T09:01:51.419Z,38.31
2019-05-02T09:06:58.754Z,38.80
2019-05-02T09:12:12.235Z,39.33
2019-05-02T09:17:16.172Z,40.73
2019-05-02T09:22:18.470Z,41.71
2019-05-02T09:27:26.064Z,41.57
2019-05-02T09:32:33.699Z,42.44
2019-05-02T09:37:41.883Z,41.56
2019-05-02T09:42:52.418Z,42.46
2019-05-02T09:48:04.055Z,42.67
2019-05-02T09:53:02.962Z,41.79
2019-05-02T09:58:14.932Z,40.29
2019-05-02T10:03:17.752Z,40.69
2019-05-02T10:08:25.382Z,40.87
2019-05-02T10:13:33.037Z,42.15
2019-05-02T10:18:42.954Z,43.25
2019-05-02T10:23:51.783Z,43.75
2019-05-02T10:28:54.973Z,41.31
2019-05-02T10:34:02.647Z,41.33
2019-05-02T10:39:15.460Z,42.32
2019-05-02T10:44:17.405Z,39.95
2019-05-02T10:49:24.987Z,40.36
2019-05-02T10:54:36.136Z,40.25
2019-05-02T10:59:41.953Z,38.28
2019-05-02T11:04:46.945Z,39.42
2019-05-02T11:09:57.325Z,36.95
2019-05-02T11:15:02.307Z,38.55
2019-05-02T11:20:08.898Z,39.86
2019-05-02T11:25:16.571Z,37.80
2019-05-02T11:30:26.535Z,34.75
2019-05-02T11:35:31.884Z,33.73
2019-05-02T11:40:38.594Z,31.63
2019-05-02T11:45:46.316Z,33.69
2019-05-02T11:50:53.930Z,34.39
2019-05-02T11:56:05.709Z,32.80
2019-05-02T12:01:08.697Z,34.05
2019-05-02T12:06:19.555Z,31.35
2019-05-02T12:11:23.452Z,32.14
2019-05-02T12:16:33.133Z,32.32
2019-05-02T12:21:41.995Z,27.52
2019-05-02T12:26:47.921Z,28.11
2019-05-02T12:31:56.419Z,31.77
2019-05-02T12:37:02.690Z,28.34
2019-05-02T12:42:12.445Z,29.48
2019-05-02T12:47:17.541Z,32.47
2019-05-02T12:52:25.138Z,29.19
2019-05-02T12:57:32.776Z,26.24
2019-05-02T13:02:41.684Z,27.31
2019-05-02T13:07:50.747Z,27.94
2019-05-02T13:12:54.721Z,27.68
2019-05-02T13:18:02.971Z,25.80
2019-05-02T13:23:09.539Z,25.01
2019-05-02T13:28:21.679Z,22.88
2019-05-02T13:33:27.252Z,22.14
2019-05-02T13:38:32.923Z,23.02
2019-05-02T13:43:38.673Z,21.69
2019-05-02T13:48:46.338Z,22.55
2019-05-02T13:53:53.953Z,22.69
2019-05-02T13:59:02.691Z,20.02
2019-05-02T14:04:10.231Z,20.33
2019-05-02T14:09:18.989Z,21.00
2019-05-02T14:14:23.073Z,20.30
2019-05-02T14:19:31.922Z,22.79
2019-05-02T14:24:37.880Z,29.31
2019-05-02T14:29:45.535Z,33.91
2019-05-02T14:34:53.114Z,36.74
2019-05-02T14:40:02.223Z,41.47
2019-05-02T14:45:19.865Z,46.59
2019-05-02T14:50:23.671Z,33.51
2019-05-02T14:55:25.633Z,35.10
2019-05-02T15:00:33.392Z,35.60
2019-05-02T15:05:36.428Z,35.04
2019-05-02T15:10:52.765Z,34.94
2019-05-02T15:15:53.003Z,32.35
2019-05-02T15:20:58.480Z,30.38
2019-05-02T15:26:06.090Z,32.57
2019-05-02T15:31:13.751Z,29.35
2019-05-02T15:36:22.071Z,25.72
2019-05-02T15:41:28.621Z,25.12
2019-05-02T15:46:36.225Z,27.50
2019-05-02T15:51:49.564Z,26.34
2019-05-02T15:56:52.233Z,26.54
2019-05-02T16:01:58.229Z,27.01
2019-05-02T16:07:08.402Z,20.78
2019-05-02T16:12:12.985Z,19.66
2019-05-02T16:17:22.200Z,20.31
2019-05-02T16:22:27.723Z,17.36
2019-05-02T16:27:35.333Z,14.64
2019-05-02T16:32:44.219Z,17.76
2019-05-02T16:37:52.347Z,18.53
2019-05-02T16:42:57.300Z,20.26
2019-05-02T16:48:04.931Z,22.29
2019-05-02T16:53:12.591Z,22.22
2019-05-02T16:58:20.193Z,22.16
2019-05-02T17:03:27.960Z,20.72
2019-05-02T17:08:35.593Z,20.31
2019-05-02T17:13:43.176Z,19.42
2019-05-02T17:18:54.976Z,17.75
2019-05-02T17:23:57.934Z,16.96
2019-05-02T17:29:05.545Z,19.67
2019-05-02T17:34:14.846Z,23.06
2019-05-02T17:39:22.164Z,33.94
2019-05-02T17:44:27.670Z,27.86
2019-05-02T17:49:36.779Z,30.82
2019-05-02T17:54:42.519Z,31.11
2019-05-02T17:59:51.906Z,45.51
2019-05-02T18:04:57.307Z,36.11
2019-05-02T18:10:13.125Z,35.57
2019-05-02T18:15:12.160Z,36.08
2019-05-02T18:20:21.828Z,35.99
2019-05-02T18:25:26.993Z,35.64
2019-05-02T18:30:34.620Z,38.62
2019-05-02T18:35:45.332Z,40.48
2019-05-02T18:40:49.404Z,41.69
2019-05-02T18:45:58.055Z,44.30
2019-05-02T18:51:04.174Z,45.73
2019-05-02T18:56:12.480Z,64.24
2019-05-02T19:01:20.910Z,62.45
2019-05-02T19:06:28.012Z,60.69
2019-05-02T19:11:35.187Z,45.25
2019-05-02T19:16:42.520Z,43.66
2019-05-02T19:21:47.639Z,44.30
2019-05-02T19:26:56.508Z,46.07
2019-05-02T19:32:02.550Z,45.99
2019-05-02T19:37:12.017Z,46.30
2019-05-02T19:42:21.910Z,48.37
2019-05-02T19:47:24.522Z,47.44
2019-05-02T19:52:38.831Z,47.29
2019-05-02T19:57:39.319Z,46.85
2019-05-02T20:02:46.914Z,61.96
2019-05-02T20:07:54.655Z,48.05
2019-05-02T20:13:03.157Z,64.73
2019-05-02T20:18:09.547Z,49.14
2019-05-02T20:23:18.735Z,29.93
2019-05-02T20:28:24.314Z,25.41
2019-05-02T20:33:32.545Z,23.95
2019-05-02T20:38:39.177Z,24.18
2019-05-02T20:43:46.820Z,20.80
2019-05-02T20:48:54.702Z,14.99
2019-05-02T20:54:02.346Z,13.62
2019-05-02T20:59:10.020Z,18.09
2019-05-02T21:04:17.643Z,15.98
2019-05-02T21:09:25.304Z,12.71
2019-05-02T21:14:32.939Z,11.26
2019-05-02T21:19:41.755Z,10.73
2019-05-02T21:24:47.753Z,11.10
2019-05-02T21:29:55.414Z,10.07
2019-05-02T21:35:03.046Z,10.34
2019-05-02T21:40:11.824Z,9.50
2019-05-02T21:45:18.008Z,7.78
2019-05-02T21:50:25.769Z,7.50
2019-05-02T21:55:34.902Z,8.71
2019-05-02T22:00:45.357Z,7.79
2019-05-02T22:05:43.253Z,7.45
2019-05-02T22:10:52.129Z,8.08
2019-05-02T22:15:58.096Z,7.35
2019-05-02T22:21:05.784Z,7.22
2019-05-02T22:26:13.414Z,8.77
2019-05-02T22:31:22.739Z,7.59
2019-05-02T22:36:28.397Z,7.90
2019-05-02T22:41:36.055Z,7.64
2019-05-02T22:46:43.761Z,8.26
2019-05-02T22:51:51.387Z,7.24
2019-05-02T22:56:59.023Z,7.24
2019-05-02T23:02:06.750Z,7.62
2019-05-02T23:07:14.380Z,7.04
2019-05-02T23:12:22.530Z,7.58
2019-05-02T23:17:29.206Z,7.64
2019-05-02T23:22:36.891Z,8.21
2019-05-02T23:27:44.514Z,9.38
2019-05-02T23:32:52.234Z,8.97
2019-05-02T23:37:59.874Z,8.33
2019-05-02T23:43:07.552Z,6.82
2019-05-02T23:48:15.177Z,6.63
2019-05-02T23:53:22.850Z,6.58
2019-05-02T23:58:32.010Z,6.96
